METAR AND TAF INFORMATION
METAR FOR EDVE
ADDS - METARS form results

(1906 UTC 22 January 2019)
Data provider http://aviationweather.gov/metar/data/
 
METAR text: EDVE 221850Z VRB02KT CAVOK M03/M08 Q1004
Conditions at: EDVE (BRAUNSCHWEIG , DE) observed 1850 UTC 22 January 2019
Temperature: -3.0°C (27°F)
Dewpoint: -8.0°C (18°F) [RH = 68%]
Pressure (altimeter): 29.65 inches Hg (1004.0 mb)
Winds: variable direction winds at 2 MPH (2 knots; 1.0 m/s)
Visibility: 6 or more miles (10+ km)
Ceiling: ceiling and visibility are OK
Clouds: unknown
Weather: no significant weather observed at this time

METAR text: EDVE 221820Z VRB02KT CAVOK M03/M07 Q1004
Conditions at: EDVE (BRAUNSCHWEIG , DE) observed 1820 UTC 22 January 2019
Temperature: -3.0°C (27°F)
Dewpoint: -7.0°C (19°F) [RH = 74%]
Pressure (altimeter): 29.65 inches Hg (1004.0 mb)
Winds: variable direction winds at 2 MPH (2 knots; 1.0 m/s)
Visibility: 6 or more miles (10+ km)
Ceiling: ceiling and visibility are OK
Clouds: unknown
Weather: no significant weather observed at this time

Forecast for: EDVE (BRAUNSCHWEIG , DE)
Text: TAF EDVE 221700Z 2218/2221 11005KT CAVOK
Forecast period: 1800 to 2100 UTC 22 January 2019
Forecast type: FROM: standard forecast or significant change
Winds: from the ESE (110 degrees) at 6 MPH (5 knots; 2.6 m/s)
Visibility: 6 or more miles 10+ km)
Ceiling: unknown
Clouds: missing
Weather: NSW  (no significant weather)

 AIRPORT MAP

 RUNWAY INFORMATION
Runway 08 Runway length 7546 ft Runway width 148 ft
Runway elevation 273 ft Runway displaced threshold 0 ft Runway heading 85
Runway 26 Runway length 7546 ft Runway width 148 ft
Runway elevation 291 ft Runway displaced threshold 591 ft Runway heading 265
Runway 08R Runway length 2953 ft Runway width 98 ft
Runway elevation 0 ft Runway displaced threshold 0 ft Runway heading 85
Runway 26L Runway length 2953 ft Runway width 98 ft
Runway elevation 0 ft Runway displaced threshold 0 ft Runway heading 265

 AIRPORT FREQUENCIES
Type ACC Name BREMEN RAD Frequency 131.325 MHZ
Type AFIS Name BREMEN INF Frequency 119.825 MHZ
Type INFO Name INFO Frequency 120.05 MHZ
Type TWR Name TWR Frequency 120.05 MHZ

 AIRPORT NEAR NAVIGATION AIDS
Type NDB Name Braunschweig Frequency 427 KHZ



Powered by Virtual Airlines Manager [v2.6.2]